Terminal Aerodrome Forecast
Issued by NWS

Home | Current Version | Previous Version | Text Only | Print | Product List | Glossary On
Versions: 1 2 3 4 5 6 7 8 9 10 11 12 13
000
FTUS45 KABQ 212300
TAFSAF
TAF
KSAF 212339Z 2200/2224 25010KT P6SM FEW110 SCT200
     FM220300 35006KT P6SM SCT100 BKN200
     FM221200 36009KT P6SM VCSH SCT050 BKN090
     FM221400 VRB05KT 6SM -SHRA BKN050 BKN090
     FM222000 22008KT P6SM VCSH SCT060 BKN090=

USA.gov is the U.S. government's official web portal to all federal, state and local government web resources and services.